createdAt,value
2023-05-21T00:01:32.307Z,14.25
2023-05-21T00:04:00.699Z,12.60
2023-05-21T00:06:29.925Z,12.52
2023-05-21T00:08:57.660Z,10.85
2023-05-21T00:11:25.940Z,11.52
2023-05-21T00:13:53.710Z,14.82
2023-05-21T00:16:21.443Z,11.10
2023-05-21T00:18:49.750Z,11.77
2023-05-21T00:21:17.735Z,11.63
2023-05-21T00:23:48.119Z,13.38
2023-05-21T00:26:15.842Z,13.23
2023-05-21T00:28:44.376Z,9.75
2023-05-21T00:31:12.173Z,9.20
2023-05-21T00:33:40.107Z,10.13
2023-05-21T00:36:08.765Z,7.70
2023-05-21T00:38:38.087Z,5.57
2023-05-21T00:41:07.225Z,10.23
2023-05-21T00:43:34.921Z,7.72
2023-05-21T00:46:02.913Z,4.28
2023-05-21T00:48:32.197Z,9.32
2023-05-21T00:51:00.148Z,10.00
2023-05-21T00:53:27.889Z,5.70
2023-05-21T00:55:55.655Z,4.88
2023-05-21T00:58:25.110Z,3.97
2023-05-21T01:00:55.764Z,4.10
2023-05-21T01:03:24.268Z,10.20
2023-05-21T01:05:53.260Z,6.95
2023-05-21T01:08:21.939Z,4.63
2023-05-21T01:10:49.804Z,3.83
2023-05-21T01:13:18.062Z,3.13
2023-05-21T01:15:47.518Z,3.67
2023-05-21T01:18:16.114Z,4.68
2023-05-21T01:20:48.039Z,4.88
2023-05-21T01:23:18.029Z,3.83
2023-05-21T01:25:46.036Z,2.17
2023-05-21T01:28:13.722Z,2.13
2023-05-21T01:30:42.300Z,2.80
2023-05-21T01:33:15.447Z,5.82
2023-05-21T01:35:46.246Z,3.53
2023-05-21T01:38:16.823Z,3.20
2023-05-21T01:40:48.071Z,2.13
2023-05-21T01:43:16.260Z,3.90
2023-05-21T01:45:44.897Z,3.05
2023-05-21T01:48:13.110Z,3.13
2023-05-21T01:50:41.682Z,3.83
2023-05-21T01:53:09.476Z,4.82
2023-05-21T01:55:39.635Z,2.75
2023-05-21T01:58:09.938Z,4.18
2023-05-21T02:00:39.839Z,2.50
2023-05-21T02:03:08.025Z,3.90
2023-05-21T02:05:36.303Z,3.20
2023-05-21T02:08:05.450Z,2.15
2023-05-21T02:10:33.414Z,1.45
2023-05-21T02:13:01.206Z,2.90
2023-05-21T02:15:34.913Z,1.50
2023-05-21T02:18:03.557Z,2.15
2023-05-21T02:20:31.436Z,1.25
2023-05-21T02:22:59.278Z,2.33
2023-05-21T02:25:27.015Z,2.20
2023-05-21T02:27:56.785Z,1.88
2023-05-21T02:30:24.715Z,2.17
2023-05-21T02:32:54.798Z,1.27
2023-05-21T02:35:22.569Z,1.17
2023-05-21T02:37:50.263Z,1.63
2023-05-21T02:40:18.018Z,1.00
2023-05-21T02:42:45.785Z,2.13
2023-05-21T02:45:18.168Z,1.42
2023-05-21T02:47:45.981Z,1.70
2023-05-21T02:50:16.127Z,1.92
2023-05-21T02:52:49.181Z,2.80
2023-05-21T02:55:16.919Z,1.75
2023-05-21T02:57:44.581Z,1.67
2023-05-21T03:00:13.357Z,2.25
2023-05-21T03:02:43.681Z,0.52
2023-05-21T03:05:11.892Z,1.95
2023-05-21T03:07:41.886Z,1.88
2023-05-21T03:10:10.036Z,1.00
2023-05-21T03:12:37.942Z,0.63
2023-05-21T03:15:06.047Z,0.52
2023-05-21T03:17:34.064Z,1.08
2023-05-21T03:20:01.968Z,2.03
2023-05-21T03:22:29.817Z,2.63
2023-05-21T03:24:58.981Z,2.88
2023-05-21T03:27:27.019Z,2.28
2023-05-21T03:29:56.020Z,1.42
2023-05-21T03:32:24.224Z,0.55
2023-05-21T03:34:52.732Z,1.55
2023-05-21T03:37:20.485Z,1.75
2023-05-21T03:39:48.623Z,0.90
2023-05-21T03:42:18.301Z,1.38
2023-05-21T03:44:50.723Z,1.10
2023-05-21T03:47:48.817Z,0.93
2023-05-21T03:50:17.345Z,4.47
2023-05-21T03:52:45.461Z,1.63
2023-05-21T03:55:13.579Z,2.75
2023-05-21T03:57:44.131Z,1.70
2023-05-21T04:00:12.635Z,1.48
2023-05-21T04:02:48.769Z,1.25
2023-05-21T04:05:18.257Z,0.82
2023-05-21T04:07:47.211Z,2.35
2023-05-21T04:10:14.944Z,2.92
2023-05-21T04:12:44.019Z,2.38
2023-05-21T04:15:12.550Z,2.60
2023-05-21T04:17:40.456Z,1.27
2023-05-21T04:20:09.028Z,1.98
2023-05-21T04:22:37.325Z,2.45
2023-05-21T04:25:05.362Z,1.48
2023-05-21T04:27:36.450Z,1.48
2023-05-21T04:30:06.207Z,1.17
2023-05-21T04:32:36.391Z,0.65
2023-05-21T04:35:04.454Z,2.55
2023-05-21T04:37:35.057Z,0.77
2023-05-21T04:40:03.524Z,1.27
2023-05-21T04:42:32.928Z,2.00
2023-05-21T04:45:01.002Z,0.52
2023-05-21T04:47:35.495Z,1.95
2023-05-21T04:50:04.610Z,1.98
2023-05-21T04:52:34.816Z,1.30
2023-05-21T04:55:03.007Z,2.15
2023-05-21T04:57:31.088Z,1.90
2023-05-21T05:00:00.632Z,1.33
2023-05-21T05:02:30.131Z,1.35
2023-05-21T05:04:59.969Z,2.10
2023-05-21T05:07:27.946Z,1.80
2023-05-21T05:09:55.844Z,0.10
2023-05-21T05:12:25.138Z,1.60
2023-05-21T05:14:53.165Z,1.38
2023-05-21T05:17:21.113Z,0.93
2023-05-21T05:19:49.100Z,2.78
2023-05-21T05:22:18.385Z,1.38
2023-05-21T05:24:46.284Z,1.02
2023-05-21T05:27:14.092Z,1.95
2023-05-21T05:29:41.849Z,0.75
2023-05-21T05:32:10.048Z,1.33
2023-05-21T05:34:38.149Z,1.25
2023-05-21T05:37:06.651Z,1.48
2023-05-21T05:39:35.813Z,1.60
2023-05-21T05:42:03.598Z,0.50
2023-05-21T05:44:31.423Z,0.63
2023-05-21T05:47:00.057Z,1.70
2023-05-21T05:49:29.090Z,2.35
2023-05-21T05:51:57.132Z,1.27
2023-05-21T05:54:25.017Z,1.83
2023-05-21T05:56:54.334Z,1.58
2023-05-21T05:59:22.431Z,0.63
2023-05-21T06:01:51.900Z,1.00
2023-05-21T06:04:19.791Z,1.33
2023-05-21T06:06:48.309Z,1.92
2023-05-21T06:09:16.228Z,1.48
2023-05-21T06:11:44.150Z,0.82
2023-05-21T06:14:13.635Z,1.85
2023-05-21T06:16:41.653Z,0.63
2023-05-21T06:19:09.802Z,0.88
2023-05-21T06:21:37.966Z,2.42
2023-05-21T06:24:07.268Z,1.58
2023-05-21T06:26:35.258Z,0.30
2023-05-21T06:29:03.893Z,1.48
2023-05-21T06:31:34.184Z,1.92
2023-05-21T06:34:02.385Z,0.77
2023-05-21T06:36:32.471Z,0.35
2023-05-21T06:39:01.217Z,0.88
2023-05-21T06:41:29.451Z,2.08
2023-05-21T06:43:59.980Z,1.15
2023-05-21T06:46:35.945Z,1.23
2023-05-21T06:49:07.969Z,1.77
2023-05-21T06:51:36.065Z,1.02
2023-05-21T06:54:04.811Z,0.45
2023-05-21T06:56:34.166Z,0.80
2023-05-21T06:59:01.908Z,2.70
2023-05-21T07:01:30.624Z,1.95
2023-05-21T07:03:59.770Z,1.50
2023-05-21T07:06:27.475Z,1.75
2023-05-21T07:08:55.240Z,0.20
2023-05-21T07:11:25.239Z,1.83
2023-05-21T07:13:52.924Z,2.03
2023-05-21T07:16:20.708Z,2.40
2023-05-21T07:18:49.790Z,1.33
2023-05-21T07:21:19.225Z,0.63
2023-05-21T07:23:48.989Z,1.83
2023-05-21T07:26:16.761Z,1.83
2023-05-21T07:28:45.136Z,0.82
2023-05-21T07:31:13.210Z,2.35
2023-05-21T07:33:46.312Z,0.85
2023-05-21T07:36:15.226Z,0.05
2023-05-21T07:38:44.798Z,1.35
2023-05-21T07:41:13.609Z,0.55
2023-05-21T07:43:41.355Z,0.55
2023-05-21T07:46:09.296Z,0.63
2023-05-21T07:48:37.509Z,0.63
2023-05-21T07:51:06.331Z,0.50
2023-05-21T07:53:34.485Z,1.88
2023-05-21T07:56:07.309Z,0.70
2023-05-21T07:58:36.106Z,1.40
2023-05-21T08:01:03.990Z,0.63
2023-05-21T08:03:32.972Z,0.90
2023-05-21T08:06:01.171Z,0.88
2023-05-21T08:08:28.915Z,0.80
2023-05-21T08:10:58.920Z,0.43
2023-05-21T08:13:29.645Z,0.65
2023-05-21T08:15:57.730Z,0.77
2023-05-21T08:18:25.526Z,0.32
2023-05-21T08:20:56.687Z,0.95
2023-05-21T08:23:27.138Z,1.20
2023-05-21T08:25:56.810Z,1.25
2023-05-21T08:28:25.372Z,1.60
2023-05-21T08:30:54.671Z,0.98
2023-05-21T08:33:24.029Z,1.40
2023-05-21T08:35:51.716Z,0.63
2023-05-21T08:38:19.382Z,0.40
2023-05-21T08:41:07.967Z,0.82
2023-05-21T08:43:37.066Z,0.60
2023-05-21T08:46:07.371Z,0.30
2023-05-21T08:48:38.192Z,0.45
2023-05-21T08:51:06.671Z,1.77
2023-05-21T08:53:39.519Z,0.30
2023-05-21T08:56:10.476Z,0.30
2023-05-21T08:58:46.930Z,0.20
2023-05-21T09:01:19.708Z,0.50
2023-05-21T09:03:51.524Z,1.35
2023-05-21T09:06:20.130Z,0.82
2023-05-21T09:08:54.274Z,0.95
2023-05-21T09:11:27.638Z,0.52
2023-05-21T09:13:58.947Z,0.20
2023-05-21T09:16:36.118Z,0.35
2023-05-21T09:19:04.779Z,0.22
2023-05-21T09:21:37.581Z,0.45
2023-05-21T09:26:46.069Z,1.60
2023-05-21T09:29:16.280Z,0.35
2023-05-21T09:31:48.890Z,0.38
2023-05-21T09:34:19.871Z,0.00
2023-05-21T09:36:51.168Z,0.35
2023-05-21T09:39:28.498Z,0.52
2023-05-21T09:41:57.970Z,0.57
2023-05-21T09:44:27.060Z,0.20
2023-05-21T09:46:59.807Z,0.13
2023-05-21T09:49:28.311Z,0.25
2023-05-21T09:51:57.666Z,0.55
2023-05-21T09:54:25.929Z,0.25
2023-05-21T09:56:53.794Z,0.63
2023-05-21T09:59:22.039Z,0.52
2023-05-21T10:01:51.625Z,0.45
2023-05-21T10:04:20.836Z,0.43
2023-05-21T10:06:48.784Z,0.20
2023-05-21T10:09:16.969Z,0.47
2023-05-21T10:11:45.634Z,0.00
2023-05-21T10:14:15.910Z,0.10
2023-05-21T10:16:43.861Z,0.20
2023-05-21T10:19:12.241Z,0.70
2023-05-21T10:21:41.954Z,0.45
2023-05-21T10:24:10.314Z,0.30
2023-05-21T10:26:38.999Z,0.10
2023-05-21T10:29:06.766Z,0.08
2023-05-21T10:31:34.876Z,0.40
2023-05-21T10:34:05.916Z,1.95
2023-05-21T10:36:34.089Z,0.10
2023-05-21T10:39:03.207Z,0.10
2023-05-21T10:41:36.161Z,0.55
2023-05-21T10:44:09.103Z,0.60
2023-05-21T10:46:57.720Z,0.70
2023-05-21T10:49:31.555Z,0.80
2023-05-21T10:52:04.241Z,0.10
2023-05-21T10:54:40.812Z,0.32
2023-05-21T10:57:11.867Z,1.20
2023-05-21T10:59:41.909Z,0.52
2023-05-21T11:02:11.104Z,0.10
2023-05-21T11:04:41.948Z,0.68
2023-05-21T11:07:09.988Z,0.35
2023-05-21T11:09:39.186Z,0.70
2023-05-21T11:12:08.038Z,0.08
2023-05-21T11:14:36.767Z,0.80
2023-05-21T11:17:05.170Z,0.15
2023-05-21T11:19:37.138Z,0.00
2023-05-21T11:22:09.266Z,0.28
2023-05-21T11:24:41.917Z,0.45
2023-05-21T11:27:09.765Z,1.30
2023-05-21T11:29:41.531Z,1.00
2023-05-21T11:32:10.352Z,0.98
2023-05-21T11:34:39.490Z,0.85
2023-05-21T11:37:27.954Z,0.30
2023-05-21T11:39:57.632Z,0.30
2023-05-21T11:42:29.026Z,0.90
2023-05-21T11:44:57.829Z,0.52
2023-05-21T11:47:26.207Z,0.55
2023-05-21T11:49:54.054Z,1.35
2023-05-21T11:52:22.382Z,1.02
2023-05-21T11:54:53.098Z,1.20
2023-05-21T11:57:22.742Z,1.27
2023-05-21T11:59:51.383Z,0.63
2023-05-21T12:02:19.696Z,0.52
2023-05-21T12:04:49.367Z,0.65
2023-05-21T12:07:17.764Z,1.48
2023-05-21T12:09:46.372Z,2.03
2023-05-21T12:12:15.714Z,0.70
2023-05-21T12:14:46.664Z,0.85
2023-05-21T12:17:16.554Z,0.70
2023-05-21T12:19:44.736Z,0.80
2023-05-21T12:22:12.617Z,0.88
2023-05-21T12:24:40.531Z,0.20
2023-05-21T12:27:10.395Z,0.50
2023-05-21T12:29:38.970Z,0.47
2023-05-21T12:32:09.265Z,0.68
2023-05-21T12:34:40.686Z,1.23
2023-05-21T12:37:09.050Z,0.77
2023-05-21T12:39:44.246Z,0.20
2023-05-21T12:42:12.087Z,0.93
2023-05-21T12:44:40.434Z,0.47
2023-05-21T12:47:09.718Z,1.00
2023-05-21T12:49:38.132Z,0.60
2023-05-21T12:52:06.834Z,0.80
2023-05-21T12:54:35.768Z,0.63
2023-05-21T12:57:07.334Z,0.82
2023-05-21T12:59:51.377Z,0.98
2023-05-21T13:02:23.742Z,0.77
2023-05-21T13:04:55.468Z,0.20
2023-05-21T13:07:23.389Z,1.00
2023-05-21T13:09:53.114Z,1.08
2023-05-21T13:12:22.277Z,0.55
2023-05-21T13:14:50.811Z,0.40
2023-05-21T13:17:18.751Z,0.43
2023-05-21T13:20:06.588Z,0.50
2023-05-21T13:22:35.382Z,0.63
2023-05-21T13:25:03.312Z,1.08
2023-05-21T13:27:31.050Z,0.45
2023-05-21T13:29:59.252Z,0.43
2023-05-21T13:32:27.029Z,1.45
2023-05-21T13:34:56.151Z,0.40
2023-05-21T13:37:23.835Z,0.60
2023-05-21T13:39:51.676Z,0.43
2023-05-21T13:42:19.603Z,0.40
2023-05-21T13:44:47.480Z,0.80
2023-05-21T13:47:16.380Z,0.65
2023-05-21T13:49:44.133Z,0.57
2023-05-21T13:52:13.240Z,0.38
2023-05-21T13:54:41.373Z,1.67
2023-05-21T13:57:09.178Z,1.08
2023-05-21T13:59:36.921Z,0.82
2023-05-21T14:02:04.877Z,0.20
2023-05-21T14:04:32.652Z,0.70
2023-05-21T14:07:00.969Z,0.43
2023-05-21T14:09:30.133Z,0.73
2023-05-21T14:11:58.757Z,0.52
2023-05-21T14:14:26.513Z,0.77
2023-05-21T14:16:54.344Z,0.63
2023-05-21T14:19:22.341Z,0.60
2023-05-21T14:21:52.356Z,1.48
2023-05-21T14:24:20.119Z,0.85
2023-05-21T14:26:49.187Z,0.68
2023-05-21T14:29:16.940Z,1.45
2023-05-21T14:31:46.242Z,0.40
2023-05-21T14:34:14.057Z,0.95
2023-05-21T14:36:41.733Z,0.43
2023-05-21T14:39:09.476Z,1.23
2023-05-21T14:41:39.429Z,0.57
2023-05-21T14:44:08.792Z,0.93
2023-05-21T14:46:36.923Z,0.82
2023-05-21T14:49:04.755Z,1.50
2023-05-21T14:51:32.497Z,1.42
2023-05-21T14:54:00.209Z,0.60
2023-05-21T14:56:28.241Z,1.20
2023-05-21T14:58:56.337Z,0.60
2023-05-21T15:01:25.573Z,0.90
2023-05-21T15:03:53.604Z,0.30
2023-05-21T15:06:22.381Z,1.75
2023-05-21T15:08:55.383Z,1.13
2023-05-21T15:11:23.086Z,0.60
2023-05-21T15:13:57.411Z,1.48
2023-05-21T15:16:31.324Z,0.52
2023-05-21T15:18:59.420Z,0.95
2023-05-21T15:21:28.406Z,0.60
2023-05-21T15:23:59.154Z,1.15
2023-05-21T15:26:27.012Z,0.50
2023-05-21T15:28:54.781Z,0.85
2023-05-21T15:31:22.620Z,1.45
2023-05-21T15:33:53.037Z,0.47
2023-05-21T15:36:20.809Z,1.15
2023-05-21T15:38:48.542Z,0.30
2023-05-21T15:41:16.317Z,0.20
2023-05-21T15:43:44.034Z,1.02
2023-05-21T15:46:12.708Z,0.77
2023-05-21T15:48:40.446Z,0.40
2023-05-21T15:51:11.682Z,1.00
2023-05-21T15:53:39.417Z,0.47
2023-05-21T15:56:09.039Z,0.88
2023-05-21T15:58:36.776Z,0.73
2023-05-21T16:01:05.662Z,0.57
2023-05-21T16:03:34.513Z,0.32
2023-05-21T16:06:02.486Z,0.73
2023-05-21T16:08:32.669Z,0.52
2023-05-21T16:11:00.586Z,0.80
2023-05-21T16:13:28.333Z,1.23
2023-05-21T16:15:56.090Z,0.88
2023-05-21T16:18:23.905Z,1.45
2023-05-21T16:20:51.604Z,0.32
2023-05-21T16:23:20.069Z,0.13
2023-05-21T16:25:49.459Z,0.30
2023-05-21T16:28:17.308Z,1.27
2023-05-21T16:30:49.973Z,1.00
2023-05-21T16:33:20.368Z,0.80
2023-05-21T16:35:48.586Z,1.27
2023-05-21T16:38:16.645Z,0.52
2023-05-21T16:40:45.191Z,0.73
2023-05-21T16:43:14.524Z,0.47
2023-05-21T16:45:43.002Z,0.57
2023-05-21T16:48:11.930Z,1.13
2023-05-21T16:50:39.872Z,0.35
2023-05-21T16:53:09.757Z,1.73
2023-05-21T16:55:38.713Z,1.67
2023-05-21T16:58:09.146Z,1.23
2023-05-21T17:00:38.349Z,0.47
2023-05-21T17:03:07.209Z,0.45
2023-05-21T17:05:35.218Z,1.70
2023-05-21T17:08:03.809Z,0.28
2023-05-21T17:10:33.582Z,0.68
2023-05-21T17:13:09.705Z,0.68
2023-05-21T17:15:47.471Z,0.55
2023-05-21T17:18:15.645Z,0.93
2023-05-21T17:20:44.178Z,0.55
2023-05-21T17:23:15.104Z,0.30
2023-05-21T17:25:42.955Z,0.65
2023-05-21T17:28:11.232Z,0.77
2023-05-21T17:30:39.111Z,1.42
2023-05-21T17:33:10.217Z,0.50
2023-05-21T17:35:38.420Z,1.50
2023-05-21T17:38:07.087Z,1.48
2023-05-21T17:40:34.879Z,0.88
2023-05-21T17:43:03.064Z,0.73
2023-05-21T17:45:30.880Z,1.73
2023-05-21T17:48:00.481Z,0.20
2023-05-21T17:50:30.104Z,0.47
2023-05-21T17:52:57.989Z,0.95
2023-05-21T17:55:28.427Z,1.33
2023-05-21T17:57:58.862Z,0.55
2023-05-21T18:00:27.170Z,3.40
2023-05-21T18:02:56.039Z,0.28
2023-05-21T18:05:23.877Z,0.13
2023-05-21T18:07:53.060Z,0.20
2023-05-21T18:10:21.211Z,0.43
2023-05-21T18:12:49.075Z,0.88
2023-05-21T18:15:17.093Z,1.15
2023-05-21T18:17:44.945Z,0.47
2023-05-21T18:20:13.467Z,0.20
2023-05-21T18:22:41.233Z,0.77
2023-05-21T18:25:11.137Z,0.98
2023-05-21T18:27:39.127Z,0.30
2023-05-21T18:30:08.253Z,0.95
2023-05-21T18:32:38.530Z,0.35
2023-05-21T18:35:07.039Z,0.90
2023-05-21T18:37:34.945Z,0.93
2023-05-21T18:40:05.551Z,0.43
2023-05-21T18:42:34.989Z,0.15
2023-05-21T18:45:06.916Z,0.70
2023-05-21T18:47:34.813Z,0.30
2023-05-21T18:50:02.707Z,1.08
2023-05-21T18:52:30.656Z,1.02
2023-05-21T18:54:58.444Z,0.15
2023-05-21T18:57:26.302Z,0.55
2023-05-21T18:59:55.899Z,0.57
2023-05-21T19:02:24.205Z,2.00
2023-05-21T19:04:52.112Z,0.15
2023-05-21T19:07:19.868Z,0.20
2023-05-21T19:09:48.742Z,0.10
2023-05-21T19:12:16.685Z,1.98
2023-05-21T19:14:44.963Z,0.63
2023-05-21T19:17:14.587Z,0.57
2023-05-21T19:19:42.445Z,0.45
2023-05-21T19:22:10.557Z,0.20
2023-05-21T19:24:38.515Z,0.50
2023-05-21T19:27:06.405Z,0.47
2023-05-21T19:29:34.212Z,0.80
2023-05-21T19:32:01.983Z,0.10
2023-05-21T19:34:31.347Z,0.10
2023-05-21T19:36:59.158Z,0.10
2023-05-21T19:39:27.334Z,0.80
2023-05-21T19:41:55.090Z,0.10
2023-05-21T19:44:22.993Z,0.22
2023-05-21T19:46:51.609Z,0.90
2023-05-21T19:49:19.982Z,0.03
2023-05-21T19:51:49.733Z,0.15
2023-05-21T19:54:18.486Z,0.80
2023-05-21T19:56:46.658Z,0.30
2023-05-21T19:59:14.778Z,0.50
2023-05-21T20:01:44.217Z,0.10
2023-05-21T20:04:12.637Z,0.20
2023-05-21T20:06:40.733Z,0.22
2023-05-21T20:09:13.448Z,0.55
2023-05-21T20:11:42.355Z,0.30
2023-05-21T20:14:10.469Z,0.28
2023-05-21T20:16:38.557Z,0.93
2023-05-21T20:19:06.677Z,0.30
2023-05-21T20:21:34.878Z,0.20
2023-05-21T20:24:03.455Z,1.15
2023-05-21T20:26:34.717Z,0.17
2023-05-21T20:29:02.994Z,0.30
2023-05-21T20:31:31.144Z,0.65
2023-05-21T20:33:59.333Z,0.38
2023-05-21T20:36:27.440Z,1.35
2023-05-21T20:38:57.250Z,0.70
2023-05-21T20:41:25.522Z,1.45
2023-05-21T20:43:55.370Z,0.17
2023-05-21T20:46:23.301Z,0.40
2023-05-21T20:48:51.314Z,0.43
2023-05-21T20:51:19.261Z,0.20
2023-05-21T20:53:47.214Z,0.10
2023-05-21T20:56:21.769Z,0.70
2023-05-21T20:58:56.235Z,0.50
2023-05-21T21:01:24.259Z,0.10
2023-05-21T21:03:52.267Z,0.45
2023-05-21T21:06:20.968Z,0.40
2023-05-21T21:08:50.248Z,0.20
2023-05-21T21:11:18.238Z,0.30
2023-05-21T21:13:46.273Z,0.55
2023-05-21T21:16:15.702Z,1.20
2023-05-21T21:18:44.045Z,0.28
2023-05-21T21:21:12.012Z,0.68
2023-05-21T21:23:40.268Z,0.10
2023-05-21T21:26:08.370Z,0.45
2023-05-21T21:28:36.364Z,0.10
2023-05-21T21:31:04.530Z,0.82
2023-05-21T21:33:33.881Z,0.80
2023-05-21T21:36:02.015Z,0.93
2023-05-21T21:38:29.917Z,0.52
2023-05-21T21:40:57.935Z,0.40
2023-05-21T21:43:25.913Z,0.82
2023-05-21T21:45:53.911Z,1.00
2023-05-21T21:48:21.944Z,0.10
2023-05-21T21:50:51.349Z,1.67
2023-05-21T21:53:19.374Z,1.00
2023-05-21T21:55:47.397Z,0.15
2023-05-21T21:58:15.386Z,0.52
2023-05-21T22:00:43.616Z,0.65
2023-05-21T22:03:13.696Z,0.75
2023-05-21T22:05:42.680Z,1.13
2023-05-21T22:08:11.989Z,0.20
2023-05-21T22:10:40.170Z,0.65
2023-05-21T22:13:08.410Z,1.20
2023-05-21T22:15:36.623Z,0.22
2023-05-21T22:18:04.985Z,0.73
2023-05-21T22:20:33.176Z,0.82
2023-05-21T22:23:01.387Z,0.60
2023-05-21T22:25:30.685Z,0.25
2023-05-21T22:27:58.641Z,0.47
2023-05-21T22:30:26.679Z,0.90
2023-05-21T22:32:54.712Z,0.30
2023-05-21T22:35:22.788Z,0.65
2023-05-21T22:37:50.690Z,0.60
2023-05-21T22:40:18.786Z,1.70
2023-05-21T22:42:48.161Z,1.83
2023-05-21T22:45:16.437Z,1.95
2023-05-21T22:47:44.533Z,1.15
2023-05-21T22:50:12.916Z,0.85
2023-05-21T22:52:41.945Z,1.88
2023-05-21T22:55:11.540Z,0.47
2023-05-21T22:57:39.404Z,0.28
2023-05-21T23:00:10.864Z,0.57
2023-05-21T23:02:39.035Z,0.70
2023-05-21T23:05:07.320Z,1.13
2023-05-21T23:07:35.555Z,1.23
2023-05-21T23:10:03.510Z,1.65
2023-05-21T23:12:31.541Z,1.42
2023-05-21T23:14:59.560Z,0.95
2023-05-21T23:17:28.944Z,0.22
2023-05-21T23:19:57.670Z,2.20
2023-05-21T23:22:25.785Z,1.52
2023-05-21T23:24:54.235Z,0.98
2023-05-21T23:27:22.248Z,0.70
2023-05-21T23:29:50.144Z,1.98
2023-05-21T23:32:18.095Z,2.05
2023-05-21T23:34:47.244Z,0.68
2023-05-21T23:37:15.281Z,0.88
2023-05-21T23:39:44.187Z,0.75
2023-05-21T23:42:12.141Z,1.27
2023-05-21T23:44:40.348Z,0.63
2023-05-21T23:47:08.319Z,1.13
2023-05-21T23:49:36.281Z,0.80
2023-05-21T23:52:06.170Z,1.05
2023-05-21T23:54:34.315Z,2.22
2023-05-21T23:57:02.279Z,1.13
2023-05-21T23:59:30.351Z,2.53
